sensor_id;sensor_type;location;lat;lon;timestamp;pressure;altitude;pressure_sealevel;temperature;humidity
62600;BME280;48671;48.922;2.346;2023-03-31T00:01:36;100314.38;;;13.87;67.93
62600;BME280;48671;48.922;2.346;2023-03-31T00:04:09;100295.22;;;13.86;68.54
62600;BME280;48671;48.922;2.346;2023-03-31T00:06:38;100312.97;;;13.81;68.90
62600;BME280;48671;48.922;2.346;2023-03-31T00:09:12;100306.22;;;13.77;68.73
62600;BME280;48671;48.922;2.346;2023-03-31T00:11:39;100302.19;;;13.71;69.13
62600;BME280;48671;48.922;2.346;2023-03-31T00:14:05;100291.81;;;13.70;68.28
62600;BME280;48671;48.922;2.346;2023-03-31T00:16:32;100280.78;;;13.65;69.35
62600;BME280;48671;48.922;2.346;2023-03-31T00:18:58;100271.34;;;13.62;69.34
62600;BME280;48671;48.922;2.346;2023-03-31T00:21:26;100234.94;;;13.59;69.85
62600;BME280;48671;48.922;2.346;2023-03-31T00:24:03;100222.22;;;13.53;69.93
62600;BME280;48671;48.922;2.346;2023-03-31T00:26:29;100211.28;;;13.46;69.44
62600;BME280;48671;48.922;2.346;2023-03-31T00:28:55;100192.69;;;13.37;69.87
62600;BME280;48671;48.922;2.346;2023-03-31T00:31:21;100173.22;;;13.42;69.35
62600;BME280;48671;48.922;2.346;2023-03-31T00:33:48;100186.16;;;13.44;69.36
62600;BME280;48671;48.922;2.346;2023-03-31T00:36:13;100176.59;;;13.44;69.45
62600;BME280;48671;48.922;2.346;2023-03-31T00:38:46;100162.00;;;13.40;69.26
62600;BME280;48671;48.922;2.346;2023-03-31T00:41:12;100160.03;;;13.44;69.32
62600;BME280;48671;48.922;2.346;2023-03-31T00:43:38;100163.53;;;13.44;69.31
62600;BME280;48671;48.922;2.346;2023-03-31T00:46:17;100152.19;;;13.44;68.88
62600;BME280;48671;48.922;2.346;2023-03-31T00:48:49;100156.22;;;13.49;68.52
62600;BME280;48671;48.922;2.346;2023-03-31T00:51:16;100149.16;;;13.51;68.32
62600;BME280;48671;48.922;2.346;2023-03-31T00:53:45;100120.66;;;13.47;68.31
62600;BME280;48671;48.922;2.346;2023-03-31T00:56:14;100115.25;;;13.50;67.54
62600;BME280;48671;48.922;2.346;2023-03-31T00:58:41;100114.41;;;13.49;67.47
62600;BME280;48671;48.922;2.346;2023-03-31T01:01:13;100112.09;;;13.45;67.44
62600;BME280;48671;48.922;2.346;2023-03-31T01:03:41;100115.81;;;13.55;66.98
62600;BME280;48671;48.922;2.346;2023-03-31T01:06:12;100098.66;;;13.51;67.16
62600;BME280;48671;48.922;2.346;2023-03-31T01:08:40;100114.03;;;13.55;66.68
62600;BME280;48671;48.922;2.346;2023-03-31T01:11:08;100100.22;;;13.53;66.69
62600;BME280;48671;48.922;2.346;2023-03-31T01:13:37;100086.31;;;13.53;66.62
62600;BME280;48671;48.922;2.346;2023-03-31T01:16:03;100064.69;;;13.51;66.75
62600;BME280;48671;48.922;2.346;2023-03-31T01:18:29;100105.38;;;13.55;66.34
62600;BME280;48671;48.922;2.346;2023-03-31T01:21:14;100107.97;;;13.55;66.36
62600;BME280;48671;48.922;2.346;2023-03-31T01:29:35;100086.44;;;13.51;65.91
62600;BME280;48671;48.922;2.346;2023-03-31T01:32:14;100076.16;;;13.48;66.35
62600;BME280;48671;48.922;2.346;2023-03-31T01:37:41;100060.47;;;13.48;66.15
62600;BME280;48671;48.922;2.346;2023-03-31T01:43:19;100061.59;;;13.44;66.76
62600;BME280;48671;48.922;2.346;2023-03-31T01:46:34;100041.16;;;13.37;66.90
62600;BME280;48671;48.922;2.346;2023-03-31T01:51:56;100028.91;;;13.37;67.17
62600;BME280;48671;48.922;2.346;2023-03-31T01:54:43;100017.63;;;13.37;67.17
62600;BME280;48671;48.922;2.346;2023-03-31T01:57:31;100017.81;;;13.33;67.83
62600;BME280;48671;48.922;2.346;2023-03-31T02:00:05;100012.69;;;13.32;68.29
62600;BME280;48671;48.922;2.346;2023-03-31T02:02:49;100007.56;;;13.30;68.26
62600;BME280;48671;48.922;2.346;2023-03-31T02:05:21;100006.72;;;13.30;68.13
62600;BME280;48671;48.922;2.346;2023-03-31T02:07:56;100006.81;;;13.28;68.25
62600;BME280;48671;48.922;2.346;2023-03-31T02:10:26;99997.03;;;13.32;68.15
62600;BME280;48671;48.922;2.346;2023-03-31T02:12:54;99998.69;;;13.33;68.54
62600;BME280;48671;48.922;2.346;2023-03-31T02:15:25;99990.66;;;13.36;67.95
62600;BME280;48671;48.922;2.346;2023-03-31T02:17:55;99987.22;;;13.35;68.46
62600;BME280;48671;48.922;2.346;2023-03-31T02:20:24;99999.25;;;13.38;68.46
62600;BME280;48671;48.922;2.346;2023-03-31T02:22:54;99975.75;;;13.38;68.46
62600;BME280;48671;48.922;2.346;2023-03-31T02:25:28;99983.47;;;13.40;68.50
62600;BME280;48671;48.922;2.346;2023-03-31T02:27:59;99982.56;;;13.41;68.43
62600;BME280;48671;48.922;2.346;2023-03-31T02:30:34;99972.19;;;13.39;68.39
62600;BME280;48671;48.922;2.346;2023-03-31T02:33:00;99963.97;;;13.45;67.92
62600;BME280;48671;48.922;2.346;2023-03-31T02:35:28;99963.03;;;13.46;67.69
62600;BME280;48671;48.922;2.346;2023-03-31T02:37:54;99963.66;;;13.50;67.90
62600;BME280;48671;48.922;2.346;2023-03-31T02:40:23;99950.78;;;13.47;68.17
62600;BME280;48671;48.922;2.346;2023-03-31T02:42:52;99942.88;;;13.48;67.79
62600;BME280;48671;48.922;2.346;2023-03-31T02:48:37;99919.25;;;13.50;67.70
62600;BME280;48671;48.922;2.346;2023-03-31T02:51:20;99903.88;;;13.45;68.04
62600;BME280;48671;48.922;2.346;2023-03-31T02:54:22;99900.22;;;13.48;68.17
62600;BME280;48671;48.922;2.346;2023-03-31T02:57:16;99894.38;;;13.44;67.97
62600;BME280;48671;48.922;2.346;2023-03-31T03:02:36;99881.50;;;13.41;68.00
62600;BME280;48671;48.922;2.346;2023-03-31T03:08:13;99885.03;;;13.40;67.98
62600;BME280;48671;48.922;2.346;2023-03-31T03:13:50;99876.53;;;13.37;68.05
62600;BME280;48671;48.922;2.346;2023-03-31T03:19:06;99880.00;;;13.37;68.52
62600;BME280;48671;48.922;2.346;2023-03-31T03:21:31;99897.38;;;13.38;68.18
62600;BME280;48671;48.922;2.346;2023-03-31T03:23:57;99893.91;;;13.38;67.80
62600;BME280;48671;48.922;2.346;2023-03-31T03:26:24;99881.56;;;13.40;67.19
62600;BME280;48671;48.922;2.346;2023-03-31T03:28:53;99879.72;;;13.42;67.73
62600;BME280;48671;48.922;2.346;2023-03-31T03:31:20;99857.22;;;13.39;67.69
62600;BME280;48671;48.922;2.346;2023-03-31T03:33:51;99857.22;;;13.39;67.24
62600;BME280;48671;48.922;2.346;2023-03-31T03:36:17;99853.78;;;13.39;67.68
62600;BME280;48671;48.922;2.346;2023-03-31T03:38:43;99851.66;;;13.31;67.54
62600;BME280;48671;48.922;2.346;2023-03-31T03:41:08;99840.47;;;13.29;67.62
62600;BME280;48671;48.922;2.346;2023-03-31T03:43:34;99836.28;;;13.26;67.53
62600;BME280;48671;48.922;2.346;2023-03-31T03:45:59;99834.22;;;13.31;67.26
62600;BME280;48671;48.922;2.346;2023-03-31T03:48:25;99841.22;;;13.31;67.61
62600;BME280;48671;48.922;2.346;2023-03-31T03:50:51;99838.38;;;13.34;67.06
62600;BME280;48671;48.922;2.346;2023-03-31T03:53:18;99832.25;;;13.35;67.08
62600;BME280;48671;48.922;2.346;2023-03-31T03:55:44;99817.47;;;13.34;67.19
62600;BME280;48671;48.922;2.346;2023-03-31T03:58:13;99827.09;;;13.33;67.49
62600;BME280;48671;48.922;2.346;2023-03-31T04:00:39;99821.16;;;13.31;67.24
62600;BME280;48671;48.922;2.346;2023-03-31T04:03:04;99826.25;;;13.33;67.11
62600;BME280;48671;48.922;2.346;2023-03-31T04:05:29;99818.16;;;13.38;67.13
62600;BME280;48671;48.922;2.346;2023-03-31T04:07:55;99814.66;;;13.37;67.50
62600;BME280;48671;48.922;2.346;2023-03-31T04:10:20;99812.72;;;13.41;67.10
62600;BME280;48671;48.922;2.346;2023-03-31T04:12:45;99807.38;;;13.42;67.09
62600;BME280;48671;48.922;2.346;2023-03-31T04:15:11;99799.66;;;13.41;67.06
62600;BME280;48671;48.922;2.346;2023-03-31T04:17:36;99796.19;;;13.40;67.18
62600;BME280;48671;48.922;2.346;2023-03-31T04:20:07;99788.47;;;13.39;67.11
62600;BME280;48671;48.922;2.346;2023-03-31T04:22:34;99792.84;;;13.38;67.16
62600;BME280;48671;48.922;2.346;2023-03-31T04:25:06;99797.97;;;13.40;66.96
62600;BME280;48671;48.922;2.346;2023-03-31T04:27:41;99787.50;;;13.40;66.79
62600;BME280;48671;48.922;2.346;2023-03-31T04:30:12;99776.44;;;13.36;67.27
62600;BME280;48671;48.922;2.346;2023-03-31T04:32:51;99786.03;;;13.35;67.27
62600;BME280;48671;48.922;2.346;2023-03-31T04:35:18;99771.50;;;13.31;67.17
62600;BME280;48671;48.922;2.346;2023-03-31T04:37:46;99787.19;;;13.31;67.70
62600;BME280;48671;48.922;2.346;2023-03-31T04:40:11;99786.34;;;13.31;67.53
62600;BME280;48671;48.922;2.346;2023-03-31T04:42:36;99792.50;;;13.30;67.24
62600;BME280;48671;48.922;2.346;2023-03-31T04:45:02;99772.44;;;13.30;67.53
62600;BME280;48671;48.922;2.346;2023-03-31T04:47:27;99783.94;;;13.28;67.10
62600;BME280;48671;48.922;2.346;2023-03-31T04:49:53;99764.06;;;13.25;67.55
62600;BME280;48671;48.922;2.346;2023-03-31T04:52:18;99776.47;;;13.22;66.84
62600;BME280;48671;48.922;2.346;2023-03-31T04:54:43;99774.69;;;13.22;67.00
62600;BME280;48671;48.922;2.346;2023-03-31T04:57:09;99767.88;;;13.20;67.02
62600;BME280;48671;48.922;2.346;2023-03-31T04:59:35;99777.97;;;13.26;66.58
62600;BME280;48671;48.922;2.346;2023-03-31T05:02:00;99773.03;;;13.21;66.37
62600;BME280;48671;48.922;2.346;2023-03-31T05:04:25;99750.63;;;13.17;66.44
62600;BME280;48671;48.922;2.346;2023-03-31T05:06:51;99776.19;;;13.26;65.69
62600;BME280;48671;48.922;2.346;2023-03-31T05:09:16;99760.63;;;13.25;65.20
62600;BME280;48671;48.922;2.346;2023-03-31T05:11:41;99776.00;;;13.29;65.23
62600;BME280;48671;48.922;2.346;2023-03-31T05:14:07;99770.69;;;13.31;65.08
62600;BME280;48671;48.922;2.346;2023-03-31T05:16:33;99774.13;;;13.31;65.13
62600;BME280;48671;48.922;2.346;2023-03-31T05:18:58;99772.34;;;13.32;65.47
62600;BME280;48671;48.922;2.346;2023-03-31T05:21:24;99755.09;;;13.29;65.02
62600;BME280;48671;48.922;2.346;2023-03-31T05:23:51;99762.84;;;13.31;64.64
62600;BME280;48671;48.922;2.346;2023-03-31T05:26:16;99760.13;;;13.32;64.17
62600;BME280;48671;48.922;2.346;2023-03-31T05:28:42;99754.16;;;13.30;63.65
62600;BME280;48671;48.922;2.346;2023-03-31T05:31:10;99744.63;;;13.29;64.05
62600;BME280;48671;48.922;2.346;2023-03-31T05:33:37;99745.38;;;13.31;63.37
62600;BME280;48671;48.922;2.346;2023-03-31T05:36:10;99742.66;;;13.33;63.08
62600;BME280;48671;48.922;2.346;2023-03-31T05:38:36;99750.63;;;13.31;63.72
62600;BME280;48671;48.922;2.346;2023-03-31T05:41:01;99730.28;;;13.22;62.97
62600;BME280;48671;48.922;2.346;2023-03-31T05:43:27;99742.97;;;13.28;63.44
62600;BME280;48671;48.922;2.346;2023-03-31T05:45:52;99729.28;;;13.25;63.46
62600;BME280;48671;48.922;2.346;2023-03-31T05:48:18;99744.56;;;13.31;63.80
62600;BME280;48671;48.922;2.346;2023-03-31T05:50:43;99735.34;;;13.25;63.32
62600;BME280;48671;48.922;2.346;2023-03-31T05:53:09;99740.25;;;13.30;63.20
62600;BME280;48671;48.922;2.346;2023-03-31T05:55:35;99730.16;;;13.24;63.16
62600;BME280;48671;48.922;2.346;2023-03-31T05:58:01;99742.97;;;13.28;62.79
62600;BME280;48671;48.922;2.346;2023-03-31T06:00:26;99739.53;;;13.28;62.91
62600;BME280;48671;48.922;2.346;2023-03-31T06:02:52;99740.56;;;13.25;62.03
62600;BME280;48671;48.922;2.346;2023-03-31T06:05:17;99759.28;;;13.32;62.57
62600;BME280;48671;48.922;2.346;2023-03-31T06:07:42;99739.78;;;13.23;62.30
62600;BME280;48671;48.922;2.346;2023-03-31T06:10:08;99751.00;;;13.25;62.46
62600;BME280;48671;48.922;2.346;2023-03-31T06:12:35;99746.41;;;13.29;62.35
62600;BME280;48671;48.922;2.346;2023-03-31T06:15:00;99727.50;;;13.25;62.70
62600;BME280;48671;48.922;2.346;2023-03-31T06:17:26;99745.66;;;13.27;62.48
62600;BME280;48671;48.922;2.346;2023-03-31T06:19:51;99734.75;;;13.20;62.56
62600;BME280;48671;48.922;2.346;2023-03-31T06:22:17;99739.63;;;13.26;62.60
62600;BME280;48671;48.922;2.346;2023-03-31T06:24:42;99744.00;;;13.26;63.06
62600;BME280;48671;48.922;2.346;2023-03-31T06:27:07;99726.56;;;13.26;62.50
62600;BME280;48671;48.922;2.346;2023-03-31T06:29:33;99733.44;;;13.27;62.28
62600;BME280;48671;48.922;2.346;2023-03-31T06:31:58;99728.22;;;13.27;62.34
62600;BME280;48671;48.922;2.346;2023-03-31T06:34:25;99729.16;;;13.26;62.13
62600;BME280;48671;48.922;2.346;2023-03-31T06:36:50;99735.13;;;13.28;62.32
62600;BME280;48671;48.922;2.346;2023-03-31T06:39:15;99735.13;;;13.28;62.02
62600;BME280;48671;48.922;2.346;2023-03-31T06:41:41;99757.81;;;13.28;61.60
62600;BME280;48671;48.922;2.346;2023-03-31T06:44:06;99735.66;;;13.33;62.03
62600;BME280;48671;48.922;2.346;2023-03-31T06:46:31;99740.16;;;13.31;62.21
62600;BME280;48671;48.922;2.346;2023-03-31T06:48:57;99739.84;;;13.36;61.81
62600;BME280;48671;48.922;2.346;2023-03-31T06:51:22;99748.25;;;13.41;61.65
62600;BME280;48671;48.922;2.346;2023-03-31T06:53:47;99746.53;;;13.40;61.92
62600;BME280;48671;48.922;2.346;2023-03-31T06:56:13;99747.50;;;13.39;61.44
62600;BME280;48671;48.922;2.346;2023-03-31T06:58:38;99737.78;;;13.41;61.62
62600;BME280;48671;48.922;2.346;2023-03-31T07:01:04;99737.59;;;13.44;61.64
62600;BME280;48671;48.922;2.346;2023-03-31T07:03:30;99737.88;;;13.40;60.98
62600;BME280;48671;48.922;2.346;2023-03-31T07:05:56;99732.66;;;13.40;60.81
62600;BME280;48671;48.922;2.346;2023-03-31T07:08:22;99739.44;;;13.42;60.75
62600;BME280;48671;48.922;2.346;2023-03-31T07:10:51;99742.06;;;13.42;61.08
62600;BME280;48671;48.922;2.346;2023-03-31T07:13:17;99726.38;;;13.42;61.29
62600;BME280;48671;48.922;2.346;2023-03-31T07:15:45;99735.06;;;13.43;60.84
62600;BME280;48671;48.922;2.346;2023-03-31T07:18:11;99736.63;;;13.45;60.94
62600;BME280;48671;48.922;2.346;2023-03-31T07:20:39;99733.06;;;13.46;60.83
62600;BME280;48671;48.922;2.346;2023-03-31T07:23:05;99726.06;;;13.47;60.35
62600;BME280;48671;48.922;2.346;2023-03-31T07:25:31;99743.25;;;13.51;60.09
62600;BME280;48671;48.922;2.346;2023-03-31T07:27:56;99739.56;;;13.53;60.27
62600;BME280;48671;48.922;2.346;2023-03-31T07:30:22;99746.78;;;13.50;60.75
62600;BME280;48671;48.922;2.346;2023-03-31T07:32:49;99737.69;;;13.55;60.37
62600;BME280;48671;48.922;2.346;2023-03-31T07:35:15;99747.72;;;13.49;60.38
62600;BME280;48671;48.922;2.346;2023-03-31T07:37:43;99761.97;;;13.57;60.36
62600;BME280;48671;48.922;2.346;2023-03-31T07:40:13;99745.44;;;13.57;59.99
62600;BME280;48671;48.922;2.346;2023-03-31T07:42:39;99746.78;;;13.63;60.39
62600;BME280;48671;48.922;2.346;2023-03-31T07:45:06;99764.81;;;13.67;60.18
62600;BME280;48671;48.922;2.346;2023-03-31T07:47:31;99752.66;;;13.66;60.19
62600;BME280;48671;48.922;2.346;2023-03-31T07:49:57;99762.06;;;13.69;59.86
62600;BME280;48671;48.922;2.346;2023-03-31T07:52:22;99755.28;;;13.66;59.84
62600;BME280;48671;48.922;2.346;2023-03-31T07:54:48;99761.56;;;13.76;60.12
62600;BME280;48671;48.922;2.346;2023-03-31T07:57:14;99762.28;;;13.78;59.71
62600;BME280;48671;48.922;2.346;2023-03-31T07:59:41;99761.25;;;13.81;59.88
62600;BME280;48671;48.922;2.346;2023-03-31T08:02:11;99750.88;;;13.79;60.06
62600;BME280;48671;48.922;2.346;2023-03-31T08:04:37;99756.88;;;13.81;59.77
62600;BME280;48671;48.922;2.346;2023-03-31T08:07:02;99751.63;;;13.81;60.07
62600;BME280;48671;48.922;2.346;2023-03-31T08:09:28;99753.09;;;13.86;59.62
62600;BME280;48671;48.922;2.346;2023-03-31T08:11:53;99753.00;;;13.87;59.96
62600;BME280;48671;48.922;2.346;2023-03-31T08:14:18;99752.38;;;13.96;59.88
62600;BME280;48671;48.922;2.346;2023-03-31T08:16:43;99744.75;;;14.06;59.83
62600;BME280;48671;48.922;2.346;2023-03-31T08:19:09;99755.72;;;14.11;59.55
62600;BME280;48671;48.922;2.346;2023-03-31T08:21:34;99760.84;;;14.13;59.48
62600;BME280;48671;48.922;2.346;2023-03-31T08:24:00;99753.72;;;14.15;59.38
62600;BME280;48671;48.922;2.346;2023-03-31T08:26:25;99760.66;;;14.03;59.40
62600;BME280;48671;48.922;2.346;2023-03-31T08:28:51;99756.13;;;14.18;59.64
62600;BME280;48671;48.922;2.346;2023-03-31T08:31:19;99764.09;;;14.29;59.93
62600;BME280;48671;48.922;2.346;2023-03-31T08:33:46;99763.44;;;14.38;59.77
62600;BME280;48671;48.922;2.346;2023-03-31T08:36:12;99770.03;;;14.44;59.01
62600;BME280;48671;48.922;2.346;2023-03-31T08:38:39;99751.81;;;14.42;59.43
62600;BME280;48671;48.922;2.346;2023-03-31T08:41:12;99773.47;;;14.44;58.54
62600;BME280;48671;48.922;2.346;2023-03-31T08:43:45;99761.56;;;14.40;58.62
62600;BME280;48671;48.922;2.346;2023-03-31T08:46:14;99754.44;;;14.42;58.80
62600;BME280;48671;48.922;2.346;2023-03-31T08:48:47;99758.59;;;14.45;58.35
62600;BME280;48671;48.922;2.346;2023-03-31T08:51:21;99735.25;;;14.42;58.89
62600;BME280;48671;48.922;2.346;2023-03-31T08:53:58;99737.88;;;14.42;58.75
62600;BME280;48671;48.922;2.346;2023-03-31T08:56:27;99753.50;;;14.43;58.71
62600;BME280;48671;48.922;2.346;2023-03-31T08:58:55;99724.91;;;14.40;58.09
62600;BME280;48671;48.922;2.346;2023-03-31T09:07:07;99758.94;;;14.53;56.51
62600;BME280;48671;48.922;2.346;2023-03-31T09:09:50;99737.88;;;14.55;57.14
62600;BME280;48671;48.922;2.346;2023-03-31T09:12:45;99741.38;;;14.55;56.80
62600;BME280;48671;48.922;2.346;2023-03-31T09:15:23;99729.50;;;14.49;56.97
62600;BME280;48671;48.922;2.346;2023-03-31T09:17:50;99733.91;;;14.62;56.43
62600;BME280;48671;48.922;2.346;2023-03-31T09:20:21;99723.19;;;14.65;56.66
62600;BME280;48671;48.922;2.346;2023-03-31T09:22:53;99732.00;;;14.64;54.86
62600;BME280;48671;48.922;2.346;2023-03-31T09:25:25;99723.84;;;14.68;56.25
62600;BME280;48671;48.922;2.346;2023-03-31T09:27:55;99694.41;;;14.65;55.41
62600;BME280;48671;48.922;2.346;2023-03-31T09:30:26;99737.16;;;14.65;55.56
62600;BME280;48671;48.922;2.346;2023-03-31T09:33:02;99748.75;;;14.61;56.24
62600;BME280;48671;48.922;2.346;2023-03-31T09:35:29;99774.00;;;14.49;57.83
62600;BME280;48671;48.922;2.346;2023-03-31T09:37:58;99787.94;;;14.37;59.86
62600;BME280;48671;48.922;2.346;2023-03-31T09:40:26;99758.88;;;14.16;59.59
62600;BME280;48671;48.922;2.346;2023-03-31T09:45:25;99758.66;;;13.94;61.42
62600;BME280;48671;48.922;2.346;2023-03-31T09:47:54;99739.09;;;13.87;61.26
62600;BME280;48671;48.922;2.346;2023-03-31T09:50:20;99745.97;;;13.75;61.33
62600;BME280;48671;48.922;2.346;2023-03-31T09:52:50;99717.22;;;13.75;62.42
62600;BME280;48671;48.922;2.346;2023-03-31T09:58:11;99735.22;;;13.92;61.20
62600;BME280;48671;48.922;2.346;2023-03-31T10:00:40;99716.41;;;14.00;61.91
62600;BME280;48671;48.922;2.346;2023-03-31T10:03:06;99721.28;;;14.04;59.82
62600;BME280;48671;48.922;2.346;2023-03-31T10:05:35;99693.16;;;14.08;58.86
62600;BME280;48671;48.922;2.346;2023-03-31T10:10:35;99709.84;;;14.31;56.73
62600;BME280;48671;48.922;2.346;2023-03-31T10:13:07;99720.09;;;14.47;57.39
62600;BME280;48671;48.922;2.346;2023-03-31T10:15:36;99707.00;;;14.60;57.41
62600;BME280;48671;48.922;2.346;2023-03-31T10:18:02;99713.38;;;14.68;56.71
62600;BME280;48671;48.922;2.346;2023-03-31T10:20:33;99716.38;;;14.75;56.10
62600;BME280;48671;48.922;2.346;2023-03-31T10:23:02;99717.91;;;14.78;55.71
62600;BME280;48671;48.922;2.346;2023-03-31T10:25:29;99730.78;;;14.81;56.54
62600;BME280;48671;48.922;2.346;2023-03-31T10:27:55;99723.84;;;14.92;55.89
62600;BME280;48671;48.922;2.346;2023-03-31T10:30:31;99719.94;;;14.98;54.83
62600;BME280;48671;48.922;2.346;2023-03-31T10:33:00;99728.63;;;14.98;54.62
62600;BME280;48671;48.922;2.346;2023-03-31T10:35:32;99713.31;;;15.05;53.78
62600;BME280;48671;48.922;2.346;2023-03-31T10:38:02;99716.41;;;15.10;53.73
62600;BME280;48671;48.922;2.346;2023-03-31T10:40:31;99702.16;;;15.14;53.88
62600;BME280;48671;48.922;2.346;2023-03-31T10:43:18;99722.09;;;15.28;54.37
62600;BME280;48671;48.922;2.346;2023-03-31T10:45:55;99718.28;;;15.32;53.06
62600;BME280;48671;48.922;2.346;2023-03-31T10:48:34;99705.78;;;15.36;52.78
62600;BME280;48671;48.922;2.346;2023-03-31T11:07:50;99726.63;;;15.73;51.50
62600;BME280;48671;48.922;2.346;2023-03-31T11:13:06;99712.22;;;15.67;51.27
62600;BME280;48671;48.922;2.346;2023-03-31T11:16:10;99717.25;;;15.70;51.12
62600;BME280;48671;48.922;2.346;2023-03-31T11:18:48;99720.34;;;15.75;51.65
62600;BME280;48671;48.922;2.346;2023-03-31T11:23:57;99715.59;;;15.80;50.71
62600;BME280;48671;48.922;2.346;2023-03-31T11:29:29;99719.28;;;15.78;51.29
62600;BME280;48671;48.922;2.346;2023-03-31T11:32:09;99724.78;;;15.97;50.36
62600;BME280;48671;48.922;2.346;2023-03-31T11:37:31;99707.00;;;16.46;49.77
62600;BME280;48671;48.922;2.346;2023-03-31T11:43:12;99697.41;;;16.67;48.32
62600;BME280;48671;48.922;2.346;2023-03-31T11:45:52;99699.56;;;16.62;49.11
62600;BME280;48671;48.922;2.346;2023-03-31T11:50:59;99701.75;;;16.46;49.80
62600;BME280;48671;48.922;2.346;2023-03-31T11:53:32;99688.16;;;16.29;49.38
62600;BME280;48671;48.922;2.346;2023-03-31T11:56:01;99700.22;;;16.21;49.76
62600;BME280;48671;48.922;2.346;2023-03-31T11:58:36;99707.50;;;16.17;50.25
62600;BME280;48671;48.922;2.346;2023-03-31T12:06:12;99671.09;;;16.35;49.48
62600;BME280;48671;48.922;2.346;2023-03-31T12:11:49;99676.31;;;16.46;46.70
62600;BME280;48671;48.922;2.346;2023-03-31T12:14:42;99676.09;;;16.49;45.90
62600;BME280;48671;48.922;2.346;2023-03-31T12:17:12;99676.81;;;16.51;45.89
62600;BME280;48671;48.922;2.346;2023-03-31T12:19:48;99666.31;;;16.51;44.35
62600;BME280;48671;48.922;2.346;2023-03-31T12:22:27;99680.59;;;16.47;45.61
62600;BME280;48671;48.922;2.346;2023-03-31T12:24:54;99700.56;;;16.38;47.31
62600;BME280;48671;48.922;2.346;2023-03-31T12:27:24;99703.31;;;16.26;49.92
62600;BME280;48671;48.922;2.346;2023-03-31T12:29:58;99721.81;;;16.13;53.04
62600;BME280;48671;48.922;2.346;2023-03-31T12:32:38;99698.91;;;15.93;53.85
62600;BME280;48671;48.922;2.346;2023-03-31T12:45:58;99682.81;;;15.97;49.91
62600;BME280;48671;48.922;2.346;2023-03-31T12:48:38;99711.56;;;16.10;49.67
62600;BME280;48671;48.922;2.346;2023-03-31T12:51:25;99686.03;;;16.23;48.98
62600;BME280;48671;48.922;2.346;2023-03-31T12:59:40;99652.56;;;16.48;46.68
62600;BME280;48671;48.922;2.346;2023-03-31T13:04:37;99674.66;;;16.45;45.84
62600;BME280;48671;48.922;2.346;2023-03-31T13:07:03;99670.72;;;16.39;46.05
62600;BME280;48671;48.922;2.346;2023-03-31T13:11:55;99676.94;;;16.38;46.70
62600;BME280;48671;48.922;2.346;2023-03-31T13:14:51;99676.09;;;16.38;46.07
62600;BME280;48671;48.922;2.346;2023-03-31T13:17:24;99679.09;;;16.33;46.23
62600;BME280;48671;48.922;2.346;2023-03-31T13:19:52;99673.34;;;16.28;45.38
62600;BME280;48671;48.922;2.346;2023-03-31T13:22:35;99678.00;;;16.36;46.33
62600;BME280;48671;48.922;2.346;2023-03-31T13:25:38;99697.44;;;16.56;45.70
62600;BME280;48671;48.922;2.346;2023-03-31T13:28:09;99678.78;;;16.81;44.20
62600;BME280;48671;48.922;2.346;2023-03-31T13:33:07;99658.69;;;16.92;44.70
62600;BME280;48671;48.922;2.346;2023-03-31T13:35:36;99660.00;;;16.86;45.29
62600;BME280;48671;48.922;2.346;2023-03-31T13:48:55;99703.44;;;16.02;50.09
62600;BME280;48671;48.922;2.346;2023-03-31T13:51:49;99725.63;;;15.86;51.83
62600;BME280;48671;48.922;2.346;2023-03-31T13:58:02;99751.47;;;15.44;54.68
62600;BME280;48671;48.922;2.346;2023-03-31T14:06:26;99757.22;;;14.65;56.90
62600;BME280;48671;48.922;2.346;2023-03-31T14:09:01;99732.78;;;14.53;57.46
62600;BME280;48671;48.922;2.346;2023-03-31T14:11:31;99742.91;;;14.58;58.79
62600;BME280;48671;48.922;2.346;2023-03-31T14:16:26;99716.91;;;15.15;57.16
62600;BME280;48671;48.922;2.346;2023-03-31T14:19:01;99719.19;;;15.55;57.21
62600;BME280;48671;48.922;2.346;2023-03-31T14:21:36;99717.63;;;15.88;56.74
62600;BME280;48671;48.922;2.346;2023-03-31T14:29:44;99703.78;;;16.42;54.13
62600;BME280;48671;48.922;2.346;2023-03-31T14:37:32;99715.44;;;16.72;52.73
62600;BME280;48671;48.922;2.346;2023-03-31T14:40:00;99713.63;;;16.72;52.64
62600;BME280;48671;48.922;2.346;2023-03-31T14:42:31;99721.91;;;16.56;52.94
62600;BME280;48671;48.922;2.346;2023-03-31T14:45:05;99718.94;;;16.27;53.20
62600;BME280;48671;48.922;2.346;2023-03-31T14:47:34;99709.41;;;16.04;54.24
62600;BME280;48671;48.922;2.346;2023-03-31T14:50:02;99731.31;;;15.91;54.66
62600;BME280;48671;48.922;2.346;2023-03-31T14:52:30;99734.19;;;15.88;54.81
62600;BME280;48671;48.922;2.346;2023-03-31T14:54:58;99725.03;;;15.83;54.72
62600;BME280;48671;48.922;2.346;2023-03-31T14:57:35;99710.31;;;15.69;55.10
62600;BME280;48671;48.922;2.346;2023-03-31T15:00:07;99722.59;;;15.68;54.87
62600;BME280;48671;48.922;2.346;2023-03-31T15:02:40;99708.13;;;15.63;54.34
62600;BME280;48671;48.922;2.346;2023-03-31T15:05:28;99717.47;;;15.67;54.77
62600;BME280;48671;48.922;2.346;2023-03-31T15:07:59;99718.66;;;15.74;54.81
62600;BME280;48671;48.922;2.346;2023-03-31T15:10:32;99712.50;;;15.86;54.36
62600;BME280;48671;48.922;2.346;2023-03-31T15:13:01;99715.25;;;15.96;54.17
62600;BME280;48671;48.922;2.346;2023-03-31T15:15:32;99723.59;;;16.01;53.81
62600;BME280;48671;48.922;2.346;2023-03-31T15:17:57;99750.19;;;16.30;53.75
62600;BME280;48671;48.922;2.346;2023-03-31T15:20:34;99720.47;;;16.41;52.30
62600;BME280;48671;48.922;2.346;2023-03-31T15:23:02;99711.03;;;16.50;51.95
62600;BME280;48671;48.922;2.346;2023-03-31T15:25:33;99724.03;;;16.62;52.33
62600;BME280;48671;48.922;2.346;2023-03-31T15:28:08;99723.16;;;16.73;51.57
62600;BME280;48671;48.922;2.346;2023-03-31T15:30:35;99721.97;;;16.89;49.94
62600;BME280;48671;48.922;2.346;2023-03-31T15:33:01;99726.34;;;16.99;49.96
62600;BME280;48671;48.922;2.346;2023-03-31T15:35:32;99700.91;;;17.00;48.97